createdAt,value
2019-05-18T00:00:38.692Z,63.52
2019-05-18T00:03:08.158Z,63.28
2019-05-18T00:05:37.627Z,63.36
2019-05-18T00:08:07.190Z,62.81
2019-05-18T00:10:36.747Z,63.31
2019-05-18T00:13:06.288Z,63.13
2019-05-18T00:15:35.921Z,63.41
2019-05-18T00:18:05.602Z,62.98
2019-05-18T00:20:35.230Z,63.08
2019-05-18T00:23:04.825Z,62.71
2019-05-18T00:25:35.868Z,62.89
2019-05-18T00:28:05.437Z,63.07
2019-05-18T00:30:34.985Z,62.88
2019-05-18T00:33:23.846Z,62.93
2019-05-18T00:35:53.325Z,62.65
2019-05-18T00:38:22.772Z,62.92
2019-05-18T00:40:52.337Z,63.02
2019-05-18T00:43:21.856Z,63.11
2019-05-18T00:46:10.784Z,62.94
2019-05-18T00:48:40.359Z,62.79
2019-05-18T00:51:09.917Z,62.69
2019-05-18T00:53:39.580Z,62.75
2019-05-18T00:56:09.008Z,62.64
2019-05-18T00:58:38.504Z,62.64
2019-05-18T01:01:08.044Z,62.62
2019-05-18T01:03:37.536Z,63.38
2019-05-18T01:06:07.012Z,63.56
2019-05-18T01:08:36.500Z,63.75
2019-05-18T01:11:06.003Z,63.35
2019-05-18T01:13:35.622Z,63.27
2019-05-18T01:16:05.342Z,63.08
2019-05-18T01:18:34.833Z,63.63
2019-05-18T01:21:04.318Z,63.56
2019-05-18T01:23:33.831Z,64.17
2019-05-18T01:26:03.447Z,64.04
2019-05-18T01:28:32.920Z,63.57
2019-05-18T01:31:02.419Z,64.00
2019-05-18T01:33:31.943Z,63.62
2019-05-18T01:36:01.513Z,63.77
2019-05-18T01:38:31.023Z,64.01
2019-05-18T01:41:00.545Z,64.42
2019-05-18T01:43:30.037Z,64.31
2019-05-18T01:45:59.502Z,64.50
2019-05-18T01:48:28.977Z,64.63
2019-05-18T01:50:58.446Z,64.78
2019-05-18T01:53:27.922Z,65.19
2019-05-18T01:55:57.385Z,65.07
2019-05-18T01:58:26.877Z,65.93
2019-05-18T02:00:56.334Z,65.93
2019-05-18T02:03:26.099Z,65.68
2019-05-18T02:05:55.674Z,65.95
2019-05-18T02:08:25.162Z,65.47
2019-05-18T02:10:54.671Z,66.38
2019-05-18T02:13:24.199Z,66.37
2019-05-18T02:15:53.705Z,66.64
2019-05-18T02:18:29.221Z,66.35
2019-05-18T02:20:54.394Z,66.20
2019-05-18T02:23:23.873Z,66.65
2019-05-18T02:25:53.405Z,67.21
2019-05-18T02:28:22.899Z,67.21
2019-05-18T02:30:52.373Z,67.32
2019-05-18T02:33:21.863Z,67.83
2019-05-18T02:35:51.403Z,67.90
2019-05-18T02:38:20.917Z,67.88
2019-05-18T02:40:50.512Z,68.11
2019-05-18T02:43:20.089Z,67.97
2019-05-18T02:45:49.584Z,67.96
2019-05-18T02:48:19.082Z,67.95
2019-05-18T02:50:48.586Z,68.06
2019-05-18T02:53:18.220Z,67.71
2019-05-18T02:55:47.772Z,67.83
2019-05-18T02:58:17.238Z,67.81
2019-05-18T03:00:47.446Z,67.77
2019-05-18T03:03:17.014Z,67.74
2019-05-18T03:05:46.541Z,67.82
2019-05-18T03:08:16.145Z,67.61
2019-05-18T03:10:45.699Z,67.69
2019-05-18T03:13:15.170Z,67.88
2019-05-18T03:15:44.745Z,67.41
2019-05-18T03:18:14.385Z,67.35
2019-05-18T03:20:44.212Z,67.36
2019-05-18T03:23:13.671Z,67.42
2019-05-18T03:25:43.529Z,67.23
2019-05-18T03:28:13.421Z,67.34
2019-05-18T03:30:42.900Z,67.62
2019-05-18T03:33:12.381Z,67.45
2019-05-18T03:35:41.860Z,67.83
2019-05-18T03:38:11.489Z,67.69
2019-05-18T03:40:40.980Z,67.71
2019-05-18T03:43:10.441Z,67.90
2019-05-18T03:45:39.992Z,67.97
2019-05-18T03:48:09.456Z,68.04
2019-05-18T03:50:38.913Z,68.06
2019-05-18T03:53:08.402Z,68.24
2019-05-18T03:55:37.902Z,68.35
2019-05-18T03:58:07.364Z,68.29
2019-05-18T04:00:36.902Z,68.46
2019-05-18T04:03:06.374Z,68.54
2019-05-18T04:05:35.836Z,68.59
2019-05-18T04:08:05.327Z,68.89
2019-05-18T04:10:34.866Z,68.51
2019-05-18T04:13:04.357Z,68.63
2019-05-18T04:15:33.992Z,68.40
2019-05-18T04:18:03.450Z,68.59
2019-05-18T04:20:32.936Z,68.60
2019-05-18T04:23:02.430Z,68.74
2019-05-18T04:25:31.895Z,68.99
2019-05-18T04:28:01.368Z,69.23
2019-05-18T04:30:30.824Z,69.07
2019-05-18T04:33:00.455Z,68.90
2019-05-18T04:35:29.909Z,68.97
2019-05-18T04:37:59.380Z,68.88
2019-05-18T04:40:28.874Z,68.82
2019-05-18T04:42:58.413Z,68.94
2019-05-18T04:45:27.903Z,68.96
2019-05-18T04:47:57.350Z,68.81
2019-05-18T04:50:26.835Z,68.76
2019-05-18T04:52:56.360Z,68.44
2019-05-18T04:55:25.854Z,68.61
2019-05-18T04:57:55.343Z,68.31
2019-05-18T05:00:24.789Z,68.30
2019-05-18T05:02:54.279Z,67.99
2019-05-18T05:05:23.735Z,68.04
2019-05-18T05:07:53.253Z,67.58
2019-05-18T05:10:22.746Z,67.72
2019-05-18T05:12:52.209Z,67.82
2019-05-18T05:15:21.729Z,66.92
2019-05-18T05:17:51.180Z,67.39
2019-05-18T05:20:20.739Z,67.01
2019-05-18T05:22:50.251Z,67.09
2019-05-18T05:25:39.090Z,66.48
2019-05-18T05:28:08.548Z,66.16
2019-05-18T05:30:38.110Z,66.49
2019-05-18T05:33:07.576Z,66.20
2019-05-18T05:35:37.849Z,66.08
2019-05-18T05:38:07.521Z,65.90
2019-05-18T05:40:37.006Z,66.43
2019-05-18T05:43:06.484Z,65.25
2019-05-18T05:45:35.939Z,65.14
2019-05-18T05:48:05.502Z,64.57
2019-05-18T05:50:36.575Z,64.66
2019-05-18T05:53:06.314Z,63.80
2019-05-18T05:55:35.802Z,64.05
2019-05-18T05:58:05.262Z,63.80
2019-05-18T06:00:34.770Z,63.40
2019-05-18T06:03:04.222Z,64.09
2019-05-18T06:05:33.730Z,64.17
2019-05-18T06:08:03.197Z,64.54
2019-05-18T06:10:32.762Z,65.00
2019-05-18T06:13:02.221Z,65.16
2019-05-18T06:15:31.756Z,64.39
2019-05-18T06:18:01.238Z,63.51
2019-05-18T06:20:30.723Z,64.24
2019-05-18T06:23:00.190Z,63.64
2019-05-18T06:25:34.090Z,62.60
2019-05-18T06:28:00.975Z,61.42
2019-05-18T06:30:30.456Z,61.91
2019-05-18T06:32:59.946Z,63.04
2019-05-18T06:35:30.999Z,60.79
2019-05-18T06:38:00.413Z,60.50
2019-05-18T06:40:29.875Z,60.38
2019-05-18T06:42:59.375Z,59.92
2019-05-18T06:45:28.989Z,59.44
2019-05-18T06:47:58.490Z,58.80
2019-05-18T06:50:31.831Z,58.86
2019-05-18T06:53:01.405Z,58.45
2019-05-18T06:55:32.552Z,57.83
2019-05-18T06:58:02.726Z,58.15
2019-05-18T07:00:32.230Z,57.39
2019-05-18T07:03:01.728Z,57.04
2019-05-18T07:05:31.173Z,56.72
2019-05-18T07:08:00.683Z,56.83
2019-05-18T07:10:30.123Z,56.86
2019-05-18T07:12:59.562Z,56.43
2019-05-18T07:15:29.083Z,56.48
2019-05-18T07:17:58.542Z,56.78
2019-05-18T07:20:28.092Z,56.30
2019-05-18T07:22:57.578Z,56.55
2019-05-18T07:25:27.034Z,56.34
2019-05-18T07:27:56.531Z,56.40
2019-05-18T07:30:25.982Z,56.32
2019-05-18T07:32:55.473Z,55.45
2019-05-18T07:35:25.024Z,55.52
2019-05-18T07:37:54.534Z,55.84
2019-05-18T07:40:24.060Z,56.26
2019-05-18T07:42:53.511Z,55.99
2019-05-18T07:45:23.095Z,56.43
2019-05-18T07:47:52.584Z,56.86
2019-05-18T07:50:22.221Z,56.46
2019-05-18T07:52:51.750Z,56.79
2019-05-18T07:55:21.195Z,58.66
2019-05-18T07:57:50.693Z,58.77
2019-05-18T08:00:20.134Z,59.52
2019-05-18T08:02:49.632Z,59.17
2019-05-18T08:05:19.250Z,57.20
2019-05-18T08:07:48.762Z,57.50
2019-05-18T08:10:22.926Z,56.10
2019-05-18T08:12:52.429Z,55.62
2019-05-18T08:15:22.009Z,55.76
2019-05-18T08:17:51.469Z,56.11
2019-05-18T08:20:20.999Z,55.33
2019-05-18T08:22:50.433Z,55.37
2019-05-18T08:25:19.992Z,55.68
2019-05-18T08:27:49.431Z,55.63
2019-05-18T08:30:18.950Z,54.84
2019-05-18T08:32:48.438Z,54.10
2019-05-18T08:35:17.912Z,53.12
2019-05-18T08:37:47.358Z,53.28
2019-05-18T08:40:17.557Z,52.73
2019-05-18T08:42:47.008Z,52.54
2019-05-18T08:45:17.010Z,52.14
2019-05-18T08:47:46.476Z,52.24
2019-05-18T08:50:16.215Z,51.53
2019-05-18T08:52:45.719Z,51.06
2019-05-18T08:55:16.431Z,50.99
2019-05-18T08:57:45.885Z,50.71
2019-05-18T09:00:16.896Z,50.01
2019-05-18T09:02:46.341Z,47.87
2019-05-18T09:05:16.271Z,49.03
2019-05-18T09:07:46.373Z,49.39
2019-05-18T09:10:16.224Z,49.79
2019-05-18T09:12:45.757Z,48.89
2019-05-18T09:15:16.025Z,48.79
2019-05-18T09:17:45.504Z,48.78
2019-05-18T09:20:15.199Z,47.52
2019-05-18T09:22:44.693Z,46.58
2019-05-18T09:25:16.125Z,46.56
2019-05-18T09:27:45.633Z,45.86
2019-05-18T09:30:15.592Z,46.68
2019-05-18T09:32:45.108Z,46.56
2019-05-18T09:35:15.082Z,46.07
2019-05-18T09:37:44.615Z,45.97
2019-05-18T09:40:14.679Z,44.96
2019-05-18T09:42:44.175Z,46.01
2019-05-18T09:45:14.428Z,46.03
2019-05-18T09:47:44.005Z,46.28
2019-05-18T09:50:13.708Z,45.39
2019-05-18T09:52:45.221Z,44.75
2019-05-18T09:55:15.267Z,44.71
2019-05-18T09:57:44.891Z,44.90
2019-05-18T10:00:16.352Z,44.25
2019-05-18T10:02:45.863Z,43.88
2019-05-18T10:05:15.471Z,43.07
2019-05-18T10:07:45.039Z,43.72
2019-05-18T10:10:15.752Z,44.04
2019-05-18T10:12:45.309Z,43.04
2019-05-18T10:15:16.035Z,43.33
2019-05-18T10:18:04.921Z,42.98
2019-05-18T10:20:34.593Z,42.06
2019-05-18T10:23:11.900Z,42.52
2019-05-18T10:25:35.351Z,41.84
2019-05-18T10:28:04.940Z,41.55
2019-05-18T10:30:34.533Z,41.18
2019-05-18T10:33:04.248Z,42.62
2019-05-18T10:35:33.814Z,43.28
2019-05-18T10:38:03.443Z,41.53
2019-05-18T10:40:33.006Z,42.20
2019-05-18T10:43:02.642Z,43.57
2019-05-18T10:45:32.133Z,43.74
2019-05-18T10:48:01.714Z,42.38
2019-05-18T10:50:31.290Z,40.70
2019-05-18T10:53:00.793Z,41.21
2019-05-18T10:55:31.691Z,40.09
2019-05-18T10:58:01.257Z,39.80
2019-05-18T11:00:31.071Z,39.90
2019-05-18T11:03:00.594Z,40.54
2019-05-18T11:05:30.056Z,39.31
2019-05-18T11:07:59.622Z,40.50
2019-05-18T11:10:29.230Z,38.18
2019-05-18T11:12:58.751Z,40.05
2019-05-18T11:15:28.350Z,38.96
2019-05-18T11:17:57.835Z,38.38
2019-05-18T11:20:27.387Z,39.76
2019-05-18T11:22:56.874Z,38.95
2019-05-18T11:25:26.373Z,38.96
2019-05-18T11:27:55.850Z,39.02
2019-05-18T11:30:25.696Z,39.66
2019-05-18T11:32:55.234Z,39.61
2019-05-18T11:35:25.159Z,38.32
2019-05-18T11:37:54.675Z,39.74
2019-05-18T11:40:24.284Z,39.03
2019-05-18T11:42:53.824Z,40.99
2019-05-18T11:45:23.770Z,41.50
2019-05-18T11:47:53.261Z,40.89
2019-05-18T11:50:23.145Z,37.33
2019-05-18T11:52:52.637Z,38.16
2019-05-18T11:55:22.550Z,38.34
2019-05-18T11:57:52.055Z,36.49
2019-05-18T12:00:24.967Z,38.59
2019-05-18T12:02:54.611Z,37.49
2019-05-18T12:05:24.138Z,35.77
2019-05-18T12:07:53.707Z,35.14
2019-05-18T12:10:23.309Z,35.17
2019-05-18T12:12:52.936Z,36.17
2019-05-18T12:15:23.017Z,37.04
2019-05-18T12:17:52.527Z,34.88
2019-05-18T12:20:24.010Z,36.78
2019-05-18T12:22:53.498Z,34.93
2019-05-18T12:25:23.131Z,34.16
2019-05-18T12:27:52.668Z,34.92
2019-05-18T12:30:22.528Z,33.34
2019-05-18T12:32:52.011Z,33.63
2019-05-18T12:35:21.643Z,34.00
2019-05-18T12:37:51.138Z,32.84
2019-05-18T12:40:23.306Z,32.46
2019-05-18T12:42:52.795Z,32.77
2019-05-18T12:45:22.592Z,32.36
2019-05-18T12:47:52.078Z,31.92
2019-05-18T12:50:23.778Z,32.64
2019-05-18T12:52:53.442Z,31.06
2019-05-18T12:55:23.833Z,31.93
2019-05-18T12:57:53.545Z,31.81
2019-05-18T13:00:23.460Z,33.09
2019-05-18T13:02:53.048Z,31.95
2019-05-18T13:05:22.746Z,31.27
2019-05-18T13:07:52.268Z,31.99
2019-05-18T13:10:22.516Z,32.38
2019-05-18T13:12:51.994Z,33.84
2019-05-18T13:15:22.082Z,35.04
2019-05-18T13:17:51.573Z,33.62
2019-05-18T13:20:21.586Z,34.96
2019-05-18T13:22:51.145Z,33.61
2019-05-18T13:25:20.780Z,33.77
2019-05-18T13:27:50.342Z,33.84
2019-05-18T13:30:20.196Z,34.68
2019-05-18T13:32:49.774Z,34.78
2019-05-18T13:35:20.277Z,35.25
2019-05-18T13:37:49.952Z,32.23
2019-05-18T13:40:19.761Z,33.42
2019-05-18T13:42:49.341Z,37.24
2019-05-18T13:45:19.609Z,33.11
2019-05-18T13:47:49.129Z,33.22
2019-05-18T13:50:19.133Z,34.78
2019-05-18T13:52:48.613Z,35.50
2019-05-18T13:55:18.371Z,34.63
2019-05-18T13:57:47.838Z,34.42
2019-05-18T14:00:17.922Z,33.95
2019-05-18T14:02:47.488Z,35.69
2019-05-18T14:05:17.994Z,34.92
2019-05-18T14:07:47.553Z,35.06
2019-05-18T14:10:17.446Z,31.94
2019-05-18T14:12:47.127Z,33.25
2019-05-18T14:15:16.878Z,33.17
2019-05-18T14:17:46.450Z,33.70
2019-05-18T14:20:16.645Z,33.89
2019-05-18T14:22:46.187Z,34.09
2019-05-18T14:25:19.632Z,35.98
2019-05-18T14:27:47.203Z,33.53
2019-05-18T14:30:17.123Z,36.60
2019-05-18T14:32:46.615Z,35.71
2019-05-18T14:35:17.422Z,36.36
2019-05-18T14:37:46.939Z,36.62
2019-05-18T14:40:16.884Z,35.71
2019-05-18T14:42:46.362Z,36.58
2019-05-18T14:45:16.339Z,37.38
2019-05-18T14:47:45.988Z,36.28
2019-05-18T14:50:16.626Z,35.95
2019-05-18T14:52:46.592Z,36.12
2019-05-18T14:55:16.412Z,36.86
2019-05-18T14:57:45.909Z,36.11
2019-05-18T15:00:15.694Z,37.43
2019-05-18T15:02:45.300Z,36.50
2019-05-18T15:05:15.119Z,36.03
2019-05-18T15:07:44.610Z,35.47
2019-05-18T15:10:16.232Z,36.88
2019-05-18T15:12:45.797Z,37.35
2019-05-18T15:15:15.949Z,38.14
2019-05-18T15:17:45.597Z,38.35
2019-05-18T15:20:16.668Z,37.56
2019-05-18T15:22:46.250Z,40.19
2019-05-18T15:25:16.139Z,39.37
2019-05-18T15:27:45.657Z,37.82
2019-05-18T15:30:15.649Z,38.57
2019-05-18T15:32:45.185Z,38.96
2019-05-18T15:37:43.973Z,38.10
2019-05-18T15:40:14.119Z,39.94
2019-05-18T15:42:43.624Z,39.37
2019-05-18T15:45:13.571Z,40.34
2019-05-18T15:47:43.204Z,40.29
2019-05-18T15:50:13.963Z,38.93
2019-05-18T15:52:43.536Z,40.87
2019-05-18T15:55:13.484Z,39.94
2019-05-18T15:57:42.947Z,39.44
2019-05-18T16:00:13.370Z,39.41
2019-05-18T16:02:42.912Z,38.78
2019-05-18T16:05:13.718Z,40.00
2019-05-18T16:07:43.342Z,40.05
2019-05-18T16:10:14.818Z,41.00
2019-05-18T16:12:44.358Z,39.60
2019-05-18T16:15:14.433Z,40.38
2019-05-18T16:17:44.084Z,37.00
2019-05-18T16:20:14.192Z,37.87
2019-05-18T16:22:44.507Z,37.39
2019-05-18T16:25:15.156Z,34.53
2019-05-18T16:27:44.762Z,34.83
2019-05-18T16:30:15.195Z,32.34
2019-05-18T16:32:44.755Z,32.32
2019-05-18T16:35:16.231Z,33.62
2019-05-18T16:37:45.790Z,32.71
2019-05-18T16:40:16.582Z,32.42
2019-05-18T16:42:47.767Z,31.37
2019-05-18T16:45:17.693Z,30.88
2019-05-18T16:47:47.345Z,30.12
2019-05-18T16:50:18.563Z,30.45
2019-05-18T16:52:48.065Z,29.58
2019-05-18T16:55:18.226Z,28.99
2019-05-18T16:57:47.757Z,28.62
2019-05-18T17:00:18.185Z,27.92
2019-05-18T17:02:47.703Z,26.59
2019-05-18T17:05:17.445Z,26.79
2019-05-18T17:07:46.901Z,26.42
2019-05-18T17:10:16.617Z,24.46
2019-05-18T17:12:46.191Z,24.43
2019-05-18T17:15:16.444Z,24.73
2019-05-18T17:17:45.922Z,25.27
2019-05-18T17:20:15.695Z,26.16
2019-05-18T17:22:45.311Z,25.30
2019-05-18T17:25:14.933Z,25.37
2019-05-18T17:27:44.559Z,25.92
2019-05-18T17:30:16.357Z,25.71
2019-05-18T17:32:45.971Z,26.09
2019-05-18T17:35:15.672Z,26.23
2019-05-18T17:37:45.251Z,26.22
2019-05-18T17:40:15.570Z,26.57
2019-05-18T17:42:45.090Z,26.69
2019-05-18T17:45:14.930Z,26.81
2019-05-18T17:47:44.455Z,27.10
2019-05-18T17:50:14.869Z,27.30
2019-05-18T17:52:44.371Z,27.05
2019-05-18T17:55:16.360Z,27.40
2019-05-18T17:57:45.758Z,27.60
2019-05-18T18:00:16.872Z,27.78
2019-05-18T18:02:48.288Z,28.42
2019-05-18T18:05:17.824Z,28.64
2019-05-18T18:07:47.281Z,28.77
2019-05-18T18:10:17.039Z,29.01
2019-05-18T18:12:46.615Z,29.12
2019-05-18T18:15:16.590Z,29.38
2019-05-18T18:17:46.087Z,29.45
2019-05-18T18:20:15.784Z,30.23
2019-05-18T18:22:45.345Z,31.30
2019-05-18T18:25:15.043Z,31.48
2019-05-18T18:27:44.593Z,32.21
2019-05-18T18:30:15.461Z,32.89
2019-05-18T18:32:45.006Z,33.59
2019-05-18T18:35:14.809Z,34.46
2019-05-18T18:37:44.433Z,34.96
2019-05-18T18:40:14.498Z,36.51
2019-05-18T18:42:44.006Z,38.03
2019-05-18T18:45:14.418Z,38.00
2019-05-18T18:47:43.894Z,39.93
2019-05-18T18:50:13.828Z,38.94
2019-05-18T18:52:43.438Z,40.00
2019-05-18T18:55:13.169Z,40.56
2019-05-18T18:57:42.739Z,39.73
2019-05-18T19:02:41.466Z,40.31
2019-05-18T19:05:11.886Z,40.96
2019-05-18T19:08:00.754Z,42.76
2019-05-18T19:10:30.275Z,43.75
2019-05-18T19:12:59.733Z,43.82
2019-05-18T19:15:29.374Z,44.46
2019-05-18T19:17:58.853Z,44.54
2019-05-18T19:20:28.367Z,45.11
2019-05-18T19:22:57.977Z,45.57
2019-05-18T19:25:27.543Z,45.08
2019-05-18T19:27:57.156Z,45.51
2019-05-18T19:30:26.804Z,46.38
2019-05-18T19:32:56.337Z,46.78
2019-05-18T19:35:25.852Z,46.42
2019-05-18T19:37:55.462Z,47.32
2019-05-18T19:40:25.103Z,48.06
2019-05-18T19:42:54.674Z,49.71
2019-05-18T19:45:24.176Z,49.56
2019-05-18T19:47:53.687Z,50.07
2019-05-18T19:50:42.527Z,50.58
2019-05-18T19:53:12.085Z,50.98
2019-05-18T19:55:41.583Z,51.19
2019-05-18T19:58:11.045Z,53.51
2019-05-18T20:00:40.506Z,54.01
2019-05-18T20:03:10.025Z,54.91
2019-05-18T20:05:39.644Z,55.80
2019-05-18T20:08:09.296Z,56.37
2019-05-18T20:10:38.753Z,55.53
2019-05-18T20:13:08.258Z,56.99
2019-05-18T20:15:37.725Z,56.87
2019-05-18T20:18:07.248Z,58.01
2019-05-18T20:20:36.848Z,58.74
2019-05-18T20:23:08.384Z,57.63
2019-05-18T20:25:37.601Z,58.03
2019-05-18T20:28:07.117Z,59.86
2019-05-18T20:30:36.658Z,60.03
2019-05-18T20:33:06.289Z,59.04
2019-05-18T20:35:35.767Z,60.04
2019-05-18T20:38:05.349Z,60.70
2019-05-18T20:40:34.821Z,60.98
2019-05-18T20:43:04.320Z,61.13
2019-05-18T20:45:33.876Z,61.75
2019-05-18T20:48:03.514Z,61.25
2019-05-18T20:50:39.058Z,61.33
2019-05-18T20:53:08.631Z,61.93
2019-05-18T20:55:38.128Z,61.37
2019-05-18T20:58:07.700Z,62.67
2019-05-18T21:00:38.670Z,62.04
2019-05-18T21:03:08.603Z,61.56
2019-05-18T21:05:38.142Z,61.18
2019-05-18T21:08:07.606Z,63.11
2019-05-18T21:10:37.200Z,63.16
2019-05-18T21:13:06.726Z,62.86
2019-05-18T21:15:36.277Z,63.14
2019-05-18T21:18:05.826Z,63.01
2019-05-18T21:20:35.311Z,63.09
2019-05-18T21:23:04.927Z,62.80
2019-05-18T21:25:34.702Z,63.03
2019-05-18T21:28:04.199Z,63.45
2019-05-18T21:30:34.365Z,63.67
2019-05-18T21:33:03.922Z,63.50
2019-05-18T21:35:33.461Z,63.00
2019-05-18T21:38:02.982Z,63.16
2019-05-18T21:40:32.520Z,63.12
2019-05-18T21:43:01.995Z,63.30
2019-05-18T21:45:31.461Z,62.89
2019-05-18T21:48:01.035Z,63.05
2019-05-18T21:50:30.551Z,63.23
2019-05-18T21:53:00.014Z,63.08
2019-05-18T21:55:29.581Z,63.30
2019-05-18T21:58:18.454Z,63.28
2019-05-18T22:00:50.469Z,62.88
2019-05-18T22:03:20.010Z,63.10
2019-05-18T22:05:49.564Z,63.65
2019-05-18T22:08:19.042Z,62.62
2019-05-18T22:10:48.642Z,63.84
2019-05-18T22:13:18.184Z,62.33
2019-05-18T22:15:47.662Z,62.37
2019-05-18T22:18:24.423Z,62.74
2019-05-18T22:20:48.490Z,62.87
2019-05-18T22:23:17.967Z,63.43
2019-05-18T22:25:47.485Z,64.21
2019-05-18T22:28:17.016Z,64.62
2019-05-18T22:30:46.608Z,64.20
2019-05-18T22:33:16.068Z,64.47
2019-05-18T22:35:45.565Z,64.73
2019-05-18T22:38:15.034Z,64.95
2019-05-18T22:40:44.549Z,64.85
2019-05-18T22:43:14.032Z,64.57
2019-05-18T22:45:47.168Z,64.62
2019-05-18T22:48:16.681Z,65.05
2019-05-18T22:50:46.152Z,64.20
2019-05-18T22:53:15.674Z,64.22
2019-05-18T22:55:45.150Z,64.64
2019-05-18T22:58:14.661Z,64.45
2019-05-18T23:00:44.172Z,64.95
2019-05-18T23:03:13.806Z,64.77
2019-05-18T23:05:43.423Z,64.55
2019-05-18T23:08:13.044Z,64.45
2019-05-18T23:10:42.546Z,64.69
2019-05-18T23:13:12.047Z,64.66
2019-05-18T23:15:41.517Z,64.95
2019-05-18T23:18:11.007Z,65.01
2019-05-18T23:20:40.479Z,65.07
2019-05-18T23:23:09.982Z,65.00
2019-05-18T23:25:39.453Z,64.94
2019-05-18T23:28:08.961Z,65.53
2019-05-18T23:30:38.427Z,65.54
2019-05-18T23:33:07.898Z,66.08
2019-05-18T23:35:37.459Z,65.97
2019-05-18T23:38:07.025Z,66.30
2019-05-18T23:40:36.587Z,66.02
2019-05-18T23:43:06.307Z,66.27
2019-05-18T23:45:36.021Z,66.26
2019-05-18T23:48:05.655Z,66.32
2019-05-18T23:50:35.216Z,66.33
2019-05-18T23:53:04.791Z,65.90
2019-05-18T23:55:53.655Z,66.17
2019-05-18T23:58:23.215Z,66.51
